Time;durP1;ratioP1;P1;durP2;ratioP2;P2;SDS_P1;SDS_P2;PMS_P1;PMS_P2;Temp;Humidity;BMP_temperature;BMP_pressure;BME280_temperature;BME280_humidity;BME280_pressure;Samples;Min_cycle;Max_cycle;Signal;HPM_P1;HPM_P2
2023/06/28 00:01:21;;;;;;;;;3.33;3.33;;;;;;;;5098943;27;28312;-81
2023/06/28 00:03:48;;;;;;;;;3.00;3.00;;;;;;;;5098599;27;28580;-81
2023/06/28 00:06:13;;;;;;;;;3.33;3.33;;;;;;;;5098857;27;28313;-80
2023/06/28 00:08:40;;;;;;;;;1.67;1.67;;;;;;;;5098167;27;28501;-80
2023/06/28 00:11:05;;;;;;;;;3.00;3.00;;;;;;;;5098090;27;28322;-80
2023/06/28 00:13:31;;;;;;;;;2.67;2.67;;;;;;;;5097099;28;28351;-80
2023/06/28 00:15:56;;;;;;;;;6.33;4.00;;;;;;;;5098783;27;28342;-81
2023/06/28 00:18:21;;;;;;;;;1.67;1.67;;;;;;;;5098318;27;28321;-81
2023/06/28 00:20:46;;;;;;;;;3.00;3.00;;;;;;;;5098479;28;28310;-81
2023/06/28 00:23:13;;;;;;;;;1.33;1.33;;;;;;;;5098247;27;28396;-81
2023/06/28 00:25:38;;;;;;;;;2.67;2.67;;;;;;;;5098139;27;28501;-80
2023/06/28 00:28:03;;;;;;;;;3.00;2.67;;;;;;;;5097994;27;28318;-81
2023/06/28 00:30:29;;;;;;;;;2.00;2.00;;;;;;;;5098290;28;28364;-81
2023/06/28 00:32:55;;;;;;;;;3.33;3.33;;;;;;;;5098194;27;28290;-81
2023/06/28 00:35:20;;;;;;;;;3.00;3.00;;;;;;;;5098387;28;28277;-80
2023/06/28 00:37:45;;;;;;;;;3.00;3.00;;;;;;;;5098006;28;28298;-81
2023/06/28 00:40:10;;;;;;;;;5.00;3.67;;;;;;;;5097377;28;28423;-80
2023/06/28 00:42:36;;;;;;;;;2.00;2.00;;;;;;;;5097987;28;28636;-81
2023/06/28 00:45:01;;;;;;;;;2.67;2.67;;;;;;;;5096858;28;28408;-81
2023/06/28 00:47:26;;;;;;;;;1.67;1.67;;;;;;;;5097937;28;28484;-81
2023/06/28 00:49:53;;;;;;;;;3.00;3.00;;;;;;;;5098077;27;28346;-81
2023/06/28 00:52:18;;;;;;;;;2.00;2.00;;;;;;;;5096559;28;28554;-81
2023/06/28 00:54:44;;;;;;;;;2.33;2.33;;;;;;;;5097727;27;28309;-80
2023/06/28 00:57:09;;;;;;;;;2.33;2.33;;;;;;;;5096400;28;28406;-81
2023/06/28 00:59:35;;;;;;;;;3.33;2.67;;;;;;;;5096366;28;28431;-80
2023/06/28 01:02:01;;;;;;;;;2.67;2.67;;;;;;;;5098034;27;28380;-81
2023/06/28 01:04:26;;;;;;;;;2.00;2.00;;;;;;;;5097764;27;28374;-80
2023/06/28 01:06:54;;;;;;;;;1.67;1.67;;;;;;;;5096408;28;28712;-81
2023/06/28 01:09:20;;;;;;;;;3.67;3.67;;;;;;;;5095973;28;29497;-80
2023/06/28 01:11:46;;;;;;;;;3.00;3.00;;;;;;;;5097641;27;28333;-81
2023/06/28 01:14:12;;;;;;;;;1.00;1.00;;;;;;;;5096396;28;28253;-80
2023/06/28 01:16:37;;;;;;;;;3.00;3.00;;;;;;;;5097642;27;29507;-81
2023/06/28 01:19:05;;;;;;;;;2.00;2.00;;;;;;;;5097477;27;28308;-81
2023/06/28 01:21:33;;;;;;;;;1.67;1.67;;;;;;;;5098332;28;28376;-80
2023/06/28 01:24:00;;;;;;;;;3.00;3.00;;;;;;;;5101132;28;28296;-80
2023/06/28 01:26:25;;;;;;;;;2.00;2.00;;;;;;;;5100744;28;28403;-81
2023/06/28 01:28:50;;;;;;;;;3.00;3.00;;;;;;;;5099650;27;28310;-80
2023/06/28 01:31:16;;;;;;;;;3.00;3.00;;;;;;;;5099711;28;28316;-81
2023/06/28 01:33:42;;;;;;;;;4.67;4.67;;;;;;;;5101360;28;28538;-81
2023/06/28 01:36:08;;;;;;;;;3.67;3.67;;;;;;;;5100960;28;28415;-81
2023/06/28 01:38:35;;;;;;;;;3.00;3.00;;;;;;;;5099351;27;28490;-81
2023/06/28 01:41:00;;;;;;;;;4.00;3.00;;;;;;;;5100290;28;28489;-80
2023/06/28 01:43:26;;;;;;;;;2.33;2.33;;;;;;;;5099576;28;28328;-81
2023/06/28 01:45:51;;;;;;;;;5.00;4.00;;;;;;;;5099458;28;31105;-81
2023/06/28 01:48:17;;;;;;;;;4.00;4.00;;;;;;;;5100836;27;28479;-80
2023/06/28 01:50:42;;;;;;;;;3.00;3.00;;;;;;;;5100612;27;28246;-81
2023/06/28 01:53:08;;;;;;;;;4.00;4.00;;;;;;;;5100935;27;28246;-80
2023/06/28 01:55:33;;;;;;;;;5.67;4.00;;;;;;;;5100157;27;29540;-81
2023/06/28 01:57:58;;;;;;;;;3.33;3.33;;;;;;;;5100790;27;28420;-81
2023/06/28 02:00:23;;;;;;;;;6.00;4.33;;;;;;;;5099245;28;28258;-81
2023/06/28 02:02:50;;;;;;;;;4.00;4.00;;;;;;;;5100814;27;28280;-81
2023/06/28 02:05:15;;;;;;;;;5.00;5.00;;;;;;;;5100406;27;28554;-81
2023/06/28 02:07:41;;;;;;;;;5.33;5.33;;;;;;;;5100589;27;28211;-81
2023/06/28 02:10:06;;;;;;;;;5.33;3.00;;;;;;;;5099934;27;28323;-81
2023/06/28 02:12:31;;;;;;;;;2.33;2.33;;;;;;;;5100740;27;28304;-81
2023/06/28 02:14:57;;;;;;;;;3.00;3.00;;;;;;;;5100290;27;28548;-81
2023/06/28 02:17:22;;;;;;;;;4.00;4.00;;;;;;;;5100376;27;28439;-80
2023/06/28 02:19:47;;;;;;;;;7.00;5.00;;;;;;;;5100312;27;28396;-81
2023/06/28 02:22:13;;;;;;;;;4.67;4.67;;;;;;;;5100362;27;28499;-81
2023/06/28 02:24:38;;;;;;;;;6.00;4.67;;;;;;;;5098339;28;29263;-80
2023/06/28 02:27:04;;;;;;;;;4.33;4.33;;;;;;;;5098880;28;29412;-81
2023/06/28 02:29:29;;;;;;;;;4.00;4.00;;;;;;;;5100185;27;28540;-80
2023/06/28 02:31:55;;;;;;;;;2.67;2.67;;;;;;;;5100304;28;28393;-81
2023/06/28 02:34:20;;;;;;;;;3.33;3.33;;;;;;;;5100055;27;28502;-81
2023/06/28 02:36:45;;;;;;;;;6.00;4.67;;;;;;;;5100094;28;28391;-80
2023/06/28 02:39:10;;;;;;;;;4.00;4.00;;;;;;;;5099840;27;28521;-81
2023/06/28 02:41:36;;;;;;;;;2.00;2.00;;;;;;;;5099481;28;28665;-81
2023/06/28 02:44:01;;;;;;;;;4.00;4.00;;;;;;;;5098536;28;29774;-81
2023/06/28 02:46:26;;;;;;;;;4.00;3.00;;;;;;;;5098424;28;28408;-81
2023/06/28 02:48:51;;;;;;;;;2.00;2.00;;;;;;;;5100003;27;28451;-80
2023/06/28 02:51:16;;;;;;;;;4.00;4.00;;;;;;;;5098440;28;28617;-80
2023/06/28 02:53:42;;;;;;;;;5.33;5.33;;;;;;;;5099891;27;28239;-80
2023/06/28 02:56:12;;;;;;;;;4.33;4.33;;;;;;;;5099200;28;28230;-80
2023/06/28 02:58:37;;;;;;;;;2.00;2.00;;;;;;;;5099613;28;28609;-80
2023/06/28 03:01:03;;;;;;;;;2.67;2.33;;;;;;;;5099598;27;28376;-81
2023/06/28 03:03:33;;;;;;;;;3.33;3.33;;;;;;;;5099657;27;28568;-80
2023/06/28 03:05:58;;;;;;;;;4.00;4.00;;;;;;;;5099536;27;28246;-80
2023/06/28 03:08:23;;;;;;;;;2.67;2.67;;;;;;;;5099535;27;28554;-81
2023/06/28 03:10:52;;;;;;;;;1.67;1.67;;;;;;;;5099133;27;28601;-81
2023/06/28 03:13:17;;;;;;;;;1.33;1.33;;;;;;;;5099411;27;28636;-81
2023/06/28 03:15:42;;;;;;;;;3.00;3.00;;;;;;;;5097889;28;28572;-81
2023/06/28 03:18:07;;;;;;;;;4.00;4.00;;;;;;;;5099429;27;28552;-80
2023/06/28 03:20:33;;;;;;;;;3.00;3.00;;;;;;;;5099417;27;28364;-81
2023/06/28 03:22:58;;;;;;;;;4.00;4.00;;;;;;;;5099229;28;28459;-80
2023/06/28 03:25:23;;;;;;;;;3.67;3.67;;;;;;;;5097395;28;28669;-80
2023/06/28 03:27:49;;;;;;;;;2.33;2.33;;;;;;;;5099440;27;28397;-81
2023/06/28 03:30:14;;;;;;;;;3.00;3.00;;;;;;;;5099297;27;28398;-80
2023/06/28 03:32:39;;;;;;;;;2.67;2.67;;;;;;;;5099173;27;28385;-81
2023/06/28 03:35:05;;;;;;;;;3.33;3.33;;;;;;;;5099025;27;28403;-81
2023/06/28 03:37:30;;;;;;;;;5.00;5.00;;;;;;;;5099159;27;28395;-80
2023/06/28 03:39:55;;;;;;;;;6.67;5.67;;;;;;;;5098508;27;28339;-81
2023/06/28 03:42:21;;;;;;;;;6.00;6.00;;;;;;;;5098955;28;28506;-81
2023/06/28 03:44:46;;;;;;;;;4.00;4.00;;;;;;;;5098237;27;28557;-80
2023/06/28 03:47:11;;;;;;;;;5.33;5.33;;;;;;;;5099145;27;28380;-81
2023/06/28 03:49:36;;;;;;;;;4.00;4.00;;;;;;;;5098958;27;28333;-81
2023/06/28 03:52:01;;;;;;;;;5.67;5.67;;;;;;;;5097521;28;29818;-80
2023/06/28 03:54:27;;;;;;;;;6.67;6.67;;;;;;;;5096974;28;28638;-81
2023/06/28 03:56:52;;;;;;;;;4.00;4.00;;;;;;;;5097502;28;28344;-81
2023/06/28 03:59:17;;;;;;;;;5.33;5.33;;;;;;;;5097349;28;28313;-81
2023/06/28 04:01:42;;;;;;;;;4.33;4.33;;;;;;;;5098829;27;28406;-81
2023/06/28 04:04:07;;;;;;;;;7.67;7.67;;;;;;;;5098467;27;28296;-81
2023/06/28 04:06:33;;;;;;;;;4.00;4.00;;;;;;;;5098827;27;28282;-80
2023/06/28 04:08:58;;;;;;;;;6.67;5.67;;;;;;;;5098368;27;28380;-81
2023/06/28 04:11:23;;;;;;;;;4.00;4.00;;;;;;;;5098304;27;28562;-80
2023/06/28 04:13:48;;;;;;;;;6.00;6.00;;;;;;;;5097180;28;29439;-81
2023/06/28 04:16:13;;;;;;;;;3.00;3.00;;;;;;;;5098700;27;28372;-81
2023/06/28 04:18:39;;;;;;;;;10.67;10.67;;;;;;;;5097002;28;28528;-80
2023/06/28 04:21:04;;;;;;;;;4.67;4.00;;;;;;;;5098392;28;28490;-80
2023/06/28 04:23:29;;;;;;;;;5.00;5.00;;;;;;;;5098328;27;28300;-80
2023/06/28 04:25:57;;;;;;;;;4.33;4.33;;;;;;;;5098033;27;28442;-81
2023/06/28 04:28:23;;;;;;;;;4.67;4.67;;;;;;;;5098368;27;28377;-81
2023/06/28 04:30:48;;;;;;;;;5.67;5.67;;;;;;;;5098275;27;28366;-80
2023/06/28 04:33:14;;;;;;;;;14.67;14.67;;;;;;;;5098062;27;28335;-81
2023/06/28 04:35:42;;;;;;;;;7.00;7.00;;;;;;;;5098375;27;28346;-81
2023/06/28 04:38:07;;;;;;;;;7.33;7.33;;;;;;;;5098175;27;28499;-81
2023/06/28 04:40:33;;;;;;;;;6.33;6.33;;;;;;;;5097216;27;28230;-81
2023/06/28 04:42:58;;;;;;;;;5.67;5.67;;;;;;;;5096522;28;28960;-80
2023/06/28 04:45:25;;;;;;;;;4.00;4.00;;;;;;;;5098095;28;28321;-81
2023/06/28 04:47:52;;;;;;;;;5.00;4.33;;;;;;;;5098122;27;28230;-80
2023/06/28 04:50:17;;;;;;;;;8.00;8.00;;;;;;;;5096355;28;29738;-81
2023/06/28 04:52:43;;;;;;;;;28.67;24.33;;;;;;;;5097672;27;28342;-81
2023/06/28 04:55:08;;;;;;;;;13.67;11.33;;;;;;;;5096244;28;28545;-81
2023/06/28 04:57:33;;;;;;;;;6.33;5.67;;;;;;;;5096753;28;28338;-80
2023/06/28 04:59:58;;;;;;;;;2.00;2.00;;;;;;;;5097981;27;28489;-81
2023/06/28 05:02:25;;;;;;;;;8.67;8.67;;;;;;;;5096240;28;28475;-81
2023/06/28 05:04:51;;;;;;;;;10.67;7.67;;;;;;;;5096536;28;28306;-80
2023/06/28 05:07:17;;;;;;;;;15.33;15.33;;;;;;;;5097686;27;28337;-80
2023/06/28 05:09:42;;;;;;;;;12.00;12.00;;;;;;;;5097259;27;28391;-81
2023/06/28 05:12:07;;;;;;;;;13.50;13.50;;;;;;;;5097720;27;28320;-80
2023/06/28 05:14:32;;;;;;;;;6.67;5.67;;;;;;;;5096296;28;28259;-80
2023/06/28 05:16:58;;;;;;;;;7.33;6.67;;;;;;;;5096194;28;28254;-80
2023/06/28 05:19:24;;;;;;;;;6.33;6.33;;;;;;;;5096070;28;29672;-80
2023/06/28 05:21:49;;;;;;;;;17.33;17.33;;;;;;;;5097382;27;28283;-80
2023/06/28 05:24:15;;;;;;;;;32.50;31.25;;;;;;;;5096970;27;28301;-80
2023/06/28 05:26:40;;;;;;;;;19.67;18.33;;;;;;;;5097465;27;28335;-80
2023/06/28 05:29:06;;;;;;;;;10.00;9.00;;;;;;;;5097332;27;28422;-81
2023/06/28 05:31:31;;;;;;;;;6.00;6.00;;;;;;;;5097346;27;28242;-80
2023/06/28 05:33:56;;;;;;;;;6.33;6.33;;;;;;;;5097621;27;28273;-81
2023/06/28 05:36:22;;;;;;;;;7.67;6.33;;;;;;;;5097379;27;28255;-81
2023/06/28 05:38:47;;;;;;;;;8.67;8.67;;;;;;;;5097052;27;28364;-81
2023/06/28 05:41:13;;;;;;;;;8.33;7.00;;;;;;;;5096687;27;28529;-80
2023/06/28 05:43:39;;;;;;;;;6.67;6.67;;;;;;;;5097412;28;28395;-80
2023/06/28 05:46:04;;;;;;;;;7.67;7.67;;;;;;;;5097225;28;28371;-81
2023/06/28 05:48:30;;;;;;;;;7.67;6.67;;;;;;;;5095756;28;29886;-80
2023/06/28 05:50:55;;;;;;;;;8.33;7.67;;;;;;;;5097039;27;28353;-81
2023/06/28 05:53:21;;;;;;;;;7.67;7.67;;;;;;;;5097285;27;28385;-81
2023/06/28 05:55:46;;;;;;;;;8.33;7.33;;;;;;;;5095377;28;28385;-81
2023/06/28 05:58:11;;;;;;;;;8.00;8.00;;;;;;;;5097047;27;29639;-81
2023/06/28 06:00:36;;;;;;;;;7.00;7.00;;;;;;;;5096817;27;28367;-80
2023/06/28 06:03:02;;;;;;;;;8.33;8.33;;;;;;;;5097128;27;28556;-80
2023/06/28 06:05:28;;;;;;;;;7.67;7.67;;;;;;;;5096999;28;28522;-81
2023/06/28 06:07:53;;;;;;;;;11.67;9.33;;;;;;;;5097891;28;28343;-81
2023/06/28 06:10:18;;;;;;;;;8.00;8.00;;;;;;;;5099969;27;28304;-81
2023/06/28 06:12:43;;;;;;;;;12.33;11.00;;;;;;;;5100549;27;28236;-81
2023/06/28 06:15:09;;;;;;;;;9.67;9.00;;;;;;;;5100430;27;28227;-81
2023/06/28 06:17:34;;;;;;;;;8.33;8.33;;;;;;;;5098959;28;30472;-81
2023/06/28 06:20:00;;;;;;;;;9.33;9.33;;;;;;;;5100301;27;28364;-81
2023/06/28 06:22:25;;;;;;;;;11.67;11.67;;;;;;;;5100390;27;28257;-81
2023/06/28 06:24:51;;;;;;;;;8.33;8.33;;;;;;;;5099782;28;28405;-81
2023/06/28 06:27:16;;;;;;;;;9.33;8.67;;;;;;;;5098830;28;28751;-81
2023/06/28 06:29:41;;;;;;;;;10.33;10.33;;;;;;;;5100119;27;28300;-81
2023/06/28 06:32:07;;;;;;;;;8.00;7.33;;;;;;;;5100276;27;28251;-81
2023/06/28 06:34:32;;;;;;;;;12.00;12.00;;;;;;;;5100299;27;28230;-81
2023/06/28 06:36:57;;;;;;;;;10.00;10.00;;;;;;;;5100063;27;28412;-81
2023/06/28 06:39:22;;;;;;;;;14.33;13.67;;;;;;;;5132216;27;28285;-81
2023/06/28 06:41:47;;;;;;;;;11.33;11.33;;;;;;;;5098815;28;28332;-81
2023/06/28 06:44:13;;;;;;;;;12.00;12.00;;;;;;;;5099956;27;28329;-81
2023/06/28 06:46:38;;;;;;;;;12.00;11.33;;;;;;;;5099856;27;28439;-81
2023/06/28 06:49:04;;;;;;;;;11.33;11.33;;;;;;;;5099771;27;28489;-81
2023/06/28 06:51:29;;;;;;;;;7.00;7.00;;;;;;;;5099919;27;28652;-81
2023/06/28 06:53:54;;;;;;;;;11.00;11.00;;;;;;;;5099827;27;28489;-81
2023/06/28 06:56:22;;;;;;;;;14.67;14.67;;;;;;;;5099392;27;29437;-81
2023/06/28 06:58:48;;;;;;;;;13.00;13.00;;;;;;;;5099559;27;28322;-81
2023/06/28 07:01:13;;;;;;;;;15.33;15.33;;;;;;;;5099799;27;28254;-81
2023/06/28 07:03:39;;;;;;;;;9.00;9.00;;;;;;;;5099686;28;28327;-81
2023/06/28 07:06:04;;;;;;;;;10.00;10.00;;;;;;;;5099584;28;28310;-80
2023/06/28 07:08:30;;;;;;;;;9.33;9.33;;;;;;;;5099657;27;28340;-81
2023/06/28 07:10:55;;;;;;;;;11.67;11.67;;;;;;;;5099172;28;28234;-80
2023/06/28 07:13:20;;;;;;;;;9.67;9.67;;;;;;;;5099635;28;28254;-81
2023/06/28 07:15:45;;;;;;;;;12.33;12.33;;;;;;;;5099431;28;28471;-80
2023/06/28 07:18:10;;;;;;;;;12.00;12.00;;;;;;;;5099347;28;28500;-81
2023/06/28 07:20:36;;;;;;;;;10.33;10.33;;;;;;;;5098382;27;28404;-81
2023/06/28 07:23:01;;;;;;;;;11.67;9.33;;;;;;;;5099442;27;28495;-81
2023/06/28 07:25:26;;;;;;;;;10.00;10.00;;;;;;;;5098670;28;28388;-81
2023/06/28 07:27:51;;;;;;;;;13.00;11.67;;;;;;;;5099188;27;28251;-81
2023/06/28 07:30:17;;;;;;;;;12.67;12.67;;;;;;;;5099154;27;28225;-81
2023/06/28 07:32:42;;;;;;;;;11.67;10.00;;;;;;;;5099415;27;28524;-81
2023/06/28 07:35:07;;;;;;;;;13.00;13.00;;;;;;;;5099018;27;29515;-81
2023/06/28 07:37:32;;;;;;;;;8.67;8.67;;;;;;;;5099348;27;28345;-80
2023/06/28 07:39:58;;;;;;;;;11.00;11.00;;;;;;;;5098396;27;28692;-81
2023/06/28 07:42:23;;;;;;;;;7.00;7.00;;;;;;;;5099024;28;28345;-81
2023/06/28 07:44:49;;;;;;;;;11.33;11.33;;;;;;;;5097453;28;30255;-81
2023/06/28 07:47:14;;;;;;;;;11.33;11.33;;;;;;;;5097606;28;28476;-81
2023/06/28 07:49:39;;;;;;;;;13.00;11.00;;;;;;;;5098741;27;28580;-81
2023/06/28 07:52:05;;;;;;;;;12.67;11.67;;;;;;;;5099210;27;28427;-80
2023/06/28 07:54:30;;;;;;;;;12.67;12.33;;;;;;;;5098149;27;28522;-81
2023/06/28 07:56:55;;;;;;;;;10.33;10.33;;;;;;;;5097513;28;29491;-81
2023/06/28 07:59:21;;;;;;;;;13.00;13.00;;;;;;;;5098848;27;28661;-81
2023/06/28 08:01:46;;;;;;;;;12.33;12.33;;;;;;;;5099052;27;28538;-81
2023/06/28 08:04:15;;;;;;;;;8.67;8.67;;;;;;;;5098372;27;28317;-81
2023/06/28 08:06:41;;;;;;;;;9.00;8.33;;;;;;;;5098675;27;28308;-81
2023/06/28 08:09:06;;;;;;;;;12.00;12.00;;;;;;;;5098039;27;28489;-81
2023/06/28 08:11:31;;;;;;;;;10.00;10.00;;;;;;;;5098805;27;28545;-81
2023/06/28 08:13:56;;;;;;;;;13.00;12.33;;;;;;;;5098252;27;28232;-80
2023/06/28 08:16:21;;;;;;;;;11.00;11.00;;;;;;;;5098736;27;28446;-81
2023/06/28 08:18:47;;;;;;;;;10.00;10.00;;;;;;;;5096856;28;28578;-81
2023/06/28 08:21:13;;;;;;;;;11.67;11.67;;;;;;;;5098681;27;28466;-81
2023/06/28 08:23:38;;;;;;;;;16.67;12.67;;;;;;;;5097950;27;29351;-81
2023/06/28 08:26:04;;;;;;;;;14.67;13.67;;;;;;;;5096622;28;28409;-81
2023/06/28 08:28:29;;;;;;;;;14.33;13.33;;;;;;;;5098124;27;28473;-81
2023/06/28 08:30:54;;;;;;;;;13.33;13.33;;;;;;;;5098213;28;28479;-81
2023/06/28 08:33:22;;;;;;;;;11.67;11.33;;;;;;;;5097999;28;29543;-81
2023/06/28 08:35:47;;;;;;;;;10.00;10.00;;;;;;;;5098226;28;28351;-81
2023/06/28 08:38:12;;;;;;;;;9.00;9.00;;;;;;;;5098061;28;29482;-81
2023/06/28 08:40:37;;;;;;;;;12.00;12.00;;;;;;;;5097488;28;28664;-81
2023/06/28 08:43:03;;;;;;;;;13.33;13.33;;;;;;;;5096470;28;28636;-81
2023/06/28 08:45:29;;;;;;;;;14.00;14.00;;;;;;;;5096771;28;28523;-81
2023/06/28 08:47:55;;;;;;;;;9.67;9.67;;;;;;;;5097810;27;28371;-81
2023/06/28 08:50:21;;;;;;;;;9.67;9.67;;;;;;;;5098179;27;28416;-81
2023/06/28 08:52:47;;;;;;;;;10.00;10.00;;;;;;;;5130753;27;28657;-81
2023/06/28 08:55:13;;;;;;;;;9.00;9.00;;;;;;;;5097454;27;28400;-81
2023/06/28 08:57:39;;;;;;;;;10.33;10.33;;;;;;;;5097614;27;28409;-81
2023/06/28 09:00:06;;;;;;;;;12.00;12.00;;;;;;;;5097844;28;28638;-81
2023/06/28 09:02:33;;;;;;;;;11.00;11.00;;;;;;;;5097632;27;28452;-81
2023/06/28 09:04:59;;;;;;;;;9.00;8.33;;;;;;;;5097615;27;28316;-81
2023/06/28 09:07:24;;;;;;;;;9.33;9.33;;;;;;;;5096316;28;28278;-81
2023/06/28 09:09:51;;;;;;;;;9.67;9.00;;;;;;;;5096043;28;28262;-81
2023/06/28 09:12:16;;;;;;;;;11.33;11.33;;;;;;;;5097417;27;29393;-81
2023/06/28 09:14:42;;;;;;;;;8.67;8.67;;;;;;;;5097858;27;28356;-81
2023/06/28 09:17:07;;;;;;;;;10.00;10.00;;;;;;;;5097455;27;28332;-81
2023/06/28 09:19:32;;;;;;;;;9.33;9.33;;;;;;;;5096379;28;28243;-81
2023/06/28 09:22:02;;;;;;;;;9.33;8.00;;;;;;;;5097406;27;28311;-81
2023/06/28 09:24:31;;;;;;;;;14.67;12.67;;;;;;;;5096923;27;28463;-81
2023/06/28 09:27:00;;;;;;;;;9.67;9.67;;;;;;;;5097340;27;28255;-81
2023/06/28 09:29:26;;;;;;;;;9.33;9.33;;;;;;;;5097630;28;28320;-81
2023/06/28 09:31:53;;;;;;;;;9.00;9.00;;;;;;;;5097164;27;28489;-81
2023/06/28 09:34:25;;;;;;;;;12.00;12.00;;;;;;;;5097445;27;28296;-81
2023/06/28 09:36:54;;;;;;;;;12.00;12.00;;;;;;;;5097135;27;28417;-81
2023/06/28 09:39:28;;;;;;;;;10.00;10.00;;;;;;;;5096820;28;28298;-81
2023/06/28 09:41:53;;;;;;;;;10.67;9.67;;;;;;;;5097203;27;29264;-81
2023/06/28 09:44:29;;;;;;;;;8.67;8.67;;;;;;;;5100305;28;28315;-81
2023/06/28 09:46:59;;;;;;;;;13.00;13.00;;;;;;;;5101030;27;28328;-82
2023/06/28 09:49:24;;;;;;;;;11.33;10.00;;;;;;;;5100728;27;28396;-81
2023/06/28 09:52:02;;;;;;;;;14.00;14.00;;;;;;;;5100619;27;28328;-81
2023/06/28 09:54:35;;;;;;;;;14.00;14.00;;;;;;;;5098803;28;28677;-81
2023/06/28 09:57:01;;;;;;;;;10.33;10.33;;;;;;;;5100765;27;28561;-81
2023/06/28 09:59:27;;;;;;;;;9.33;7.33;;;;;;;;5099306;28;28432;-81
2023/06/28 10:01:52;;;;;;;;;8.67;8.67;;;;;;;;5100633;27;28468;-81
2023/06/28 10:04:19;;;;;;;;;8.00;8.00;;;;;;;;5100261;27;28370;-81
2023/06/28 10:06:45;;;;;;;;;12.33;10.33;;;;;;;;5100674;27;28308;-81
2023/06/28 10:09:15;;;;;;;;;12.67;12.67;;;;;;;;5099997;27;28297;-81
2023/06/28 10:11:42;;;;;;;;;14.67;14.67;;;;;;;;5100289;27;28549;-81
2023/06/28 10:14:08;;;;;;;;;12.33;12.33;;;;;;;;5100458;27;28398;-81
2023/06/28 10:16:34;;;;;;;;;16.00;15.00;;;;;;;;5100380;27;28491;-81
2023/06/28 10:18:59;;;;;;;;;14.00;13.00;;;;;;;;5100347;27;28363;-81
2023/06/28 10:21:25;;;;;;;;;12.33;12.33;;;;;;;;5100284;27;28246;-81
2023/06/28 10:23:51;;;;;;;;;8.67;8.67;;;;;;;;5100047;27;28292;-81
2023/06/28 10:26:17;;;;;;;;;10.33;10.33;;;;;;;;5098761;28;28329;-81
2023/06/28 10:28:43;;;;;;;;;9.67;9.67;;;;;;;;5098812;28;28294;-81
2023/06/28 10:31:09;;;;;;;;;9.33;9.33;;;;;;;;5100079;27;29569;-81
2023/06/28 10:33:37;;;;;;;;;10.67;10.67;;;;;;;;5100064;28;28476;-82
2023/06/28 10:36:03;;;;;;;;;8.67;8.67;;;;;;;;5100030;28;28335;-81
2023/06/28 10:38:33;;;;;;;;;10.67;10.33;;;;;;;;5100113;28;28305;-82
2023/06/28 10:40:59;;;;;;;;;10.33;10.33;;;;;;;;5099301;28;28588;-82
2023/06/28 10:43:24;;;;;;;;;12.00;12.00;;;;;;;;5100021;27;28364;-81
2023/06/28 10:45:50;;;;;;;;;13.00;13.00;;;;;;;;5100080;27;28482;-81
2023/06/28 10:48:22;;;;;;;;;10.33;9.67;;;;;;;;5100131;28;28505;-81
2023/06/28 10:50:48;;;;;;;;;12.33;12.33;;;;;;;;5099681;27;29202;-81
2023/06/28 10:53:25;;;;;;;;;9.00;9.00;;;;;;;;5099857;27;28444;-81
2023/06/28 10:56:08;;;;;;;;;12.67;12.67;;;;;;;;5098261;27;28418;-81
2023/06/28 10:58:37;;;;;;;;;12.67;12.67;;;;;;;;5099576;27;28534;-81
2023/06/28 11:01:04;;;;;;;;;9.67;9.67;;;;;;;;5098125;28;28480;-81
2023/06/28 11:03:45;;;;;;;;;14.00;14.00;;;;;;;;5099493;27;28432;-82
2023/06/28 11:06:13;;;;;;;;;11.33;11.33;;;;;;;;5098400;28;28495;-81
2023/06/28 11:08:40;;;;;;;;;11.00;11.00;;;;;;;;5099428;27;28241;-81
2023/06/28 11:11:06;;;;;;;;;11.33;11.33;;;;;;;;5099121;27;29174;-82
2023/06/28 11:13:45;;;;;;;;;11.67;11.67;;;;;;;;5099327;27;28325;-81
2023/06/28 11:16:12;;;;;;;;;12.00;12.00;;;;;;;;5099783;27;28439;-81
2023/06/28 11:18:37;;;;;;;;;13.67;13.67;;;;;;;;5097941;27;28605;-81
2023/06/28 11:21:03;;;;;;;;;12.33;12.00;;;;;;;;5099213;27;28603;-81
2023/06/28 11:23:29;;;;;;;;;13.00;13.00;;;;;;;;5099353;28;28257;-81
2023/06/28 11:26:00;;;;;;;;;14.00;14.00;;;;;;;;5098949;28;28300;-81
2023/06/28 11:28:29;;;;;;;;;11.00;11.00;;;;;;;;5099147;27;28362;-82
2023/06/28 11:30:54;;;;;;;;;13.33;13.33;;;;;;;;5099105;28;28439;-81
2023/06/28 11:33:21;;;;;;;;;13.00;13.00;;;;;;;;5099033;28;28286;-82
2023/06/28 11:35:47;;;;;;;;;15.00;13.00;;;;;;;;5099165;28;28315;-81
2023/06/28 11:38:13;;;;;;;;;13.00;11.00;;;;;;;;5098959;28;28262;-81
2023/06/28 11:40:38;;;;;;;;;12.00;12.00;;;;;;;;5098007;27;28807;-82
2023/06/28 11:43:03;;;;;;;;;13.33;13.33;;;;;;;;5098820;28;28387;-81
2023/06/28 11:45:31;;;;;;;;;13.00;13.00;;;;;;;;5099080;27;28581;-82
2023/06/28 11:47:56;;;;;;;;;14.00;14.00;;;;;;;;5097577;28;28458;-82
2023/06/28 11:50:21;;;;;;;;;11.33;11.33;;;;;;;;5098681;27;28591;-81
2023/06/28 11:52:47;;;;;;;;;15.00;15.00;;;;;;;;5098739;27;28542;-82
2023/06/28 11:55:16;;;;;;;;;15.00;15.00;;;;;;;;5098448;27;28379;-81
2023/06/28 11:57:43;;;;;;;;;14.67;14.67;;;;;;;;5098896;27;28341;-81
2023/06/28 12:00:08;;;;;;;;;16.00;16.00;;;;;;;;5098531;28;29495;-81
2023/06/28 12:02:45;;;;;;;;;12.67;12.67;;;;;;;;5098466;27;28423;-81
2023/06/28 12:05:10;;;;;;;;;13.33;13.33;;;;;;;;5098489;27;28423;-81
2023/06/28 12:07:36;;;;;;;;;18.67;16.67;;;;;;;;5098605;27;28509;-81
2023/06/28 12:10:01;;;;;;;;;14.67;14.67;;;;;;;;5098108;27;28379;-81
2023/06/28 12:12:33;;;;;;;;;13.00;13.00;;;;;;;;5098461;28;28588;-81
2023/06/28 12:14:58;;;;;;;;;16.33;16.33;;;;;;;;5098441;28;28644;-81
2023/06/28 12:17:24;;;;;;;;;14.00;13.67;;;;;;;;5098572;28;28498;-81
2023/06/28 12:19:49;;;;;;;;;18.67;18.67;;;;;;;;5097104;28;30797;-81
2023/06/28 12:22:14;;;;;;;;;17.67;17.00;;;;;;;;5098387;27;28327;-81
2023/06/28 12:24:40;;;;;;;;;12.33;12.33;;;;;;;;5097925;28;28413;-81
2023/06/28 12:27:06;;;;;;;;;14.00;14.00;;;;;;;;5097023;28;28467;-82
2023/06/28 12:29:35;;;;;;;;;16.00;16.00;;;;;;;;5098117;27;28426;-81
2023/06/28 12:32:07;;;;;;;;;18.67;17.00;;;;;;;;5098196;27;28312;-81
2023/06/28 12:34:38;;;;;;;;;16.00;16.00;;;;;;;;5131030;27;28405;-82
2023/06/28 12:37:04;;;;;;;;;16.67;14.67;;;;;;;;5096944;28;28312;-81
2023/06/28 12:39:34;;;;;;;;;15.33;15.33;;;;;;;;5095839;28;29847;-81
2023/06/28 12:42:01;;;;;;;;;18.67;18.67;;;;;;;;5096585;28;28695;-82
2023/06/28 12:44:28;;;;;;;;;15.00;14.33;;;;;;;;5097953;27;28595;-81
2023/06/28 12:46:53;;;;;;;;;17.33;13.67;;;;;;;;5098078;27;28245;-82
2023/06/28 12:49:18;;;;;;;;;12.67;12.67;;;;;;;;5097862;27;28546;-81
2023/06/28 12:51:44;;;;;;;;;17.00;17.00;;;;;;;;5096585;28;28644;-82
2023/06/28 12:54:09;;;;;;;;;11.00;11.00;;;;;;;;5096094;28;28506;-82
2023/06/28 12:56:34;;;;;;;;;13.00;13.00;;;;;;;;5097894;28;28466;-82
2023/06/28 12:58:59;;;;;;;;;13.00;13.00;;;;;;;;5096293;28;30779;-81
2023/06/28 13:01:25;;;;;;;;;11.67;10.00;;;;;;;;5097838;27;28527;-82
2023/06/28 13:03:54;;;;;;;;;13.33;13.33;;;;;;;;5097603;27;28321;-82
2023/06/28 13:06:20;;;;;;;;;15.67;15.00;;;;;;;;5097950;28;28247;-81
2023/06/28 13:08:45;;;;;;;;;13.00;13.00;;;;;;;;5097010;27;28388;-81
2023/06/28 13:11:12;;;;;;;;;13.67;13.67;;;;;;;;5097734;28;28313;-81
2023/06/28 13:13:37;;;;;;;;;11.67;11.67;;;;;;;;5097545;27;28322;-81
2023/06/28 13:16:02;;;;;;;;;16.67;16.00;;;;;;;;5097691;27;28609;-82
2023/06/28 13:18:28;;;;;;;;;14.67;14.00;;;;;;;;5096391;27;28359;-81
2023/06/28 13:20:53;;;;;;;;;16.00;15.00;;;;;;;;5097578;27;28421;-81
2023/06/28 13:23:19;;;;;;;;;17.67;17.67;;;;;;;;5097504;27;28394;-82
2023/06/28 13:25:44;;;;;;;;;15.67;15.67;;;;;;;;5097193;27;28341;-81
2023/06/28 13:28:09;;;;;;;;;15.67;14.00;;;;;;;;5097366;28;28385;-82
2023/06/28 13:30:34;;;;;;;;;15.33;15.33;;;;;;;;5097315;27;28451;-81
2023/06/28 13:32:59;;;;;;;;;20.67;20.67;;;;;;;;5097453;27;28287;-81
2023/06/28 13:35:25;;;;;;;;;14.33;14.33;;;;;;;;5096198;28;28365;-82
2023/06/28 13:37:50;;;;;;;;;13.67;13.67;;;;;;;;5097159;27;29498;-81
2023/06/28 13:40:17;;;;;;;;;17.67;16.00;;;;;;;;5096660;27;28517;-81
2023/06/28 13:42:43;;;;;;;;;13.67;13.67;;;;;;;;5097151;28;28408;-81
2023/06/28 13:45:08;;;;;;;;;14.67;14.67;;;;;;;;5097461;27;28284;-81
2023/06/28 13:47:34;;;;;;;;;13.67;13.67;;;;;;;;5097037;27;28518;-81
2023/06/28 13:49:59;;;;;;;;;14.67;14.67;;;;;;;;5097328;28;28270;-81
2023/06/28 13:52:24;;;;;;;;;17.67;16.00;;;;;;;;5097338;27;28237;-81
2023/06/28 13:54:49;;;;;;;;;16.33;16.33;;;;;;;;5097016;27;28242;-81
2023/06/28 13:57:14;;;;;;;;;17.33;17.33;;;;;;;;5095560;28;30077;-81
2023/06/28 13:59:40;;;;;;;;;14.00;14.00;;;;;;;;5097182;27;28424;-81
2023/06/28 14:02:06;;;;;;;;;13.00;13.00;;;;;;;;5097235;28;28568;-81
2023/06/28 14:04:31;;;;;;;;;15.00;15.00;;;;;;;;5097165;27;28242;-81
2023/06/28 14:06:56;;;;;;;;;15.33;15.33;;;;;;;;5096854;27;28317;-82
2023/06/28 14:09:21;;;;;;;;;15.00;15.00;;;;;;;;5096563;28;28270;-81
2023/06/28 14:11:47;;;;;;;;;17.67;17.00;;;;;;;;5097156;27;28215;-81
2023/06/28 14:14:12;;;;;;;;;11.33;11.33;;;;;;;;5097058;27;28203;-81
2023/06/28 14:16:37;;;;;;;;;12.00;12.00;;;;;;;;5096874;27;28243;-81
2023/06/28 14:19:02;;;;;;;;;17.67;16.00;;;;;;;;5096597;27;28206;-81
2023/06/28 14:21:28;;;;;;;;;12.67;12.67;;;;;;;;5096955;27;28336;-82
2023/06/28 14:23:53;;;;;;;;;10.33;10.33;;;;;;;;5096244;28;28240;-82